Soaring Guidance
Issued by NWS Reno, NV

Home | Current Version | Previous Version | Text Only | Print | Product List | Glossary On
Versions: 1 2 3 4 5 6 7
000
UXUS97 KREV 251335
SRGREV

SOARING FORECAST
NATIONAL WEATHER SERVICE - RENO NV
700 AM PDT TUE APR 25 2017

THIS SOARING FORECAST IS FOR THE EASTERN SIERRA AND WESTERN NEVADA
WITH SPECIFIC INDICES FOR THE GREATER RENO AREA.

THIS FORECAST IS PREPARED DAILY BY 700 AM AND IS NOT UPDATED.

FOR CURRENT FLIGHT CONDITIONS...FORECASTS...AND ADVISORIES...ACCESS
YOUR LOCAL BRIEFING OUTLET OR FLIGHT SERVICE STATION.

*******************************************************************
FORECASTED LOCAL INDICES FOR RENO:        TODAY     YESTERDAY
FORECASTED MAX TEMP AT RENO (DEG F).....     59          58
FORECASTED TRIGGER TEMPERATURE (DEG F)..     52          52
   EXCEEDED YESTERDAY BY 1000 AM PDT
FORECASTED MAXIMUM ALTITUDE (FT MSL)....  12500       12500
FORECASTED SOARING INDEX (FPM)..........    615         615
FORECASTED K-INDEX.........VALID 18Z....      7          23
FORECASTED K-INDEX.........VALID 00Z....     27          24
FORECASTED LIFTED INDEX....VALID 18Z....     10           8
FORECASTED LIFTED INDEX....VALID 00Z....      5           5

AFTERNOON WINDS ALOFT FORECAST
MSL (FT) WIND/TEMP
9000  3011/+01
10000 3018/+00
12000 3233/-04
14000 3237/-07
16000 3242/-10
18000 3257/-14
24000 3389/-24
30000 8207/-39
34000 8206/-51
39000 8104/-62

SLIDE MOUNTAIN DATA:
     DATE       TIME     TEMP  DEWPT   RH         WIND (MPH)
                        (F)   (F)           | DIR  SPEED GUST
2017-04-25    05:20      19    18     94    | 020    6   12
2017-04-25    05:00      19    18     94    | 348   10   14
2017-04-25    04:50      19    18     94    | 346   10   16
2017-04-25    04:30      18    17     94    | 358    8   14

RENO TAF FORECAST:
KRNO 251133Z 2512/2612 33006KT P6SM SCT060
     FM260200 30009KT P6SM SCT090 BKN150
     FM260500 VRB04KT P6SM SCT060 BKN120

CARSON CITY TAF FORECAST:
KCXP 251133Z 2512/2612 30006KT P6SM FEW090 BKN150
     FM252000 05007KT P6SM SCT150
     FM260100 28009KT P6SM SCT080 BKN150
     FM260400 VRB04KT P6SM SCT060 BKN120

OUTLOOK FOR THE RENO-CARSON CITY-MINDEN AREA:
.WEDNESDAY...MOSTLY CLOUDY WITH ISOLATED SHOWERS. HIGHS 64 TO 69.
SOUTHWEST WINDS AROUND 10 MPH WITH GUSTS UP TO 30 MPH INCREASING
TO WEST 20 TO 30 MPH WITH GUSTS UP TO 45 MPH IN THE AFTERNOON.

SUNRISE AND SUNSET
APRIL 25 2017.........SUNRISE   607 AM PDT   SUNSET   747 PM PDT
APRIL 26 2017.........SUNRISE   606 AM PDT   SUNSET   748 PM PDT



USA.gov is the U.S. government's official web portal to all federal, state and local government web resources and services.